Time;durP1;ratioP1;P1;durP2;ratioP2;P2;SDS_P1;SDS_P2;PMS_P1;PMS_P2;Temp;Humidity;BMP_temperature;BMP_pressure;BME280_temperature;BME280_humidity;BME280_pressure;Samples;Min_cycle;Max_cycle;Signal;HPM_P1;HPM_P2
2021/04/23 00:01:42;;;;;;;;;;;2.50;80.70;;;;;;5024607;28;20359;-71
2021/04/23 00:04:08;;;;;;;;;;;2.50;80.20;;;;;;5018806;28;20504;-71
2021/04/23 00:06:35;;;;;;;;;;;2.60;79.70;;;;;;5027402;28;19919;-70
2021/04/23 00:09:10;;;;;;;;;;;2.60;79.80;;;;;;5019175;28;19921;-71
2021/04/23 00:11:52;;;;;;;;;;;2.50;80.00;;;;;;5021833;28;19956;-70
2021/04/23 00:14:19;;;;;;;;;;;2.30;81.90;;;;;;5019544;28;19983;-70
2021/04/23 00:16:49;;;;;;;;;;;2.20;82.50;;;;;;5027795;28;19917;-70
2021/04/23 00:19:16;;;;;;;;;;;2.20;83.00;;;;;;5001139;28;19921;-69
2021/04/23 00:21:43;;;;;;;;;;;2.10;83.50;;;;;;5013000;28;20370;-69
2021/04/23 00:24:08;;;;;;;;;;;2.00;84.10;;;;;;5012172;28;19925;-70
2021/04/23 00:26:34;;;;;;;;;;;2.00;84.00;;;;;;5018151;28;19932;-70
2021/04/23 00:29:00;;;;;;;;;;;2.00;84.10;;;;;;4994757;28;19913;-71
2021/04/23 00:31:25;;;;;;;;;;;2.10;83.60;;;;;;4998239;28;20278;-70
2021/04/23 00:33:51;;;;;;;;;;;2.10;82.90;;;;;;5014332;28;19964;-70
2021/04/23 00:36:16;;;;;;;;;;;2.20;82.50;;;;;;5021271;28;20012;-70
2021/04/23 00:38:42;;;;;;;;;;;2.20;82.10;;;;;;5013144;28;20303;-70
2021/04/23 00:41:09;;;;;;;;;;;2.00;83.20;;;;;;5015262;28;20008;-69
2021/04/23 00:43:37;;;;;;;;;;;2.00;82.60;;;;;;5013987;28;20016;-70
2021/04/23 00:46:03;;;;;;;;;;;2.00;82.20;;;;;;5017228;28;19913;-69
2021/04/23 00:48:34;;;;;;;;;;;1.90;83.20;;;;;;5022924;28;19974;-71
2021/04/23 00:51:11;;;;;;;;;;;2.00;83.60;;;;;;5029653;28;19994;-71
2021/04/23 00:53:39;;;;;;;;;;;2.00;83.70;;;;;;5026763;28;20335;-70
2021/04/23 00:56:07;;;;;;;;;;;2.10;82.80;;;;;;5016435;28;20008;-72
2021/04/23 00:58:33;;;;;;;;;;;2.10;82.10;;;;;;5016916;28;19922;-70
2021/04/23 01:01:06;;;;;;;;;;;2.10;82.60;;;;;;5017292;28;20253;-70
2021/04/23 01:03:32;;;;;;;;;;;2.00;83.10;;;;;;5022010;28;19925;-69
2021/04/23 01:05:59;;;;;;;;;;;2.00;83.60;;;;;;5022022;28;19922;-70
2021/04/23 01:08:28;;;;;;;;;;;2.10;83.20;;;;;;5018591;28;19913;-70
2021/04/23 01:10:59;;;;;;;;;;;2.10;82.90;;;;;;5000500;28;19932;-70
2021/04/23 01:13:30;;;;;;;;;;;2.10;82.20;;;;;;5017288;28;19921;-70
2021/04/23 01:15:56;;;;;;;;;;;2.10;82.20;;;;;;5020804;28;19922;-70
2021/04/23 01:18:22;;;;;;;;;;;2.10;82.60;;;;;;5013267;28;20008;-70
2021/04/23 01:20:48;;;;;;;;;;;2.10;83.20;;;;;;5016754;28;20004;-70
2021/04/23 01:23:13;;;;;;;;;;;2.10;83.20;;;;;;5016664;28;19933;-71
2021/04/23 01:25:39;;;;;;;;;;;2.10;83.10;;;;;;5015244;28;20233;-70
2021/04/23 01:28:07;;;;;;;;;;;2.00;83.40;;;;;;5013728;28;19921;-71
2021/04/23 01:30:33;;;;;;;;;;;2.00;83.80;;;;;;5022060;28;19913;-70
2021/04/23 01:32:58;;;;;;;;;;;1.90;84.20;;;;;;5032352;28;19913;-70
2021/04/23 01:35:40;;;;;;;;;;;1.90;84.30;;;;;;5034531;28;20221;-71
2021/04/23 01:38:06;;;;;;;;;;;1.80;84.60;;;;;;5034062;28;19917;-71
2021/04/23 01:40:31;;;;;;;;;;;1.70;84.80;;;;;;5005923;28;19967;-70
2021/04/23 01:42:57;;;;;;;;;;;1.80;84.90;;;;;;5020381;28;20331;-69
2021/04/23 01:45:22;;;;;;;;;;;1.80;84.40;;;;;;5026072;28;20326;-71
2021/04/23 01:47:48;;;;;;;;;;;1.70;84.50;;;;;;5020180;28;19956;-70
2021/04/23 01:50:17;;;;;;;;;;;1.70;84.50;;;;;;5019554;28;20013;-70
2021/04/23 01:52:43;;;;;;;;;;;1.60;84.70;;;;;;5015243;28;19917;-69
2021/04/23 01:55:09;;;;;;;;;;;1.60;84.80;;;;;;5014991;28;20548;-70
2021/04/23 01:57:35;;;;;;;;;;;1.50;85.30;;;;;;5021425;28;19913;-70
2021/04/23 02:00:04;;;;;;;;;;;1.50;85.30;;;;;;5012841;28;19913;-70
2021/04/23 02:02:30;;;;;;;;;;;1.40;85.40;;;;;;5021160;28;19972;-69
2021/04/23 02:04:55;;;;;;;;;;;1.50;85.30;;;;;;5012927;28;19921;-71
2021/04/23 02:07:21;;;;;;;;;;;1.60;85.10;;;;;;5026723;28;20342;-70
2021/04/23 02:09:46;;;;;;;;;;;1.60;85.30;;;;;;5017396;28;19913;-70
2021/04/23 02:12:12;;;;;;;;;;;1.50;85.70;;;;;;5031975;28;19913;-70
2021/04/23 02:14:38;;;;;;;;;;;1.40;86.60;;;;;;5014168;28;19921;-70
2021/04/23 02:17:07;;;;;;;;;;;1.20;87.60;;;;;;5012818;28;19928;-71
2021/04/23 02:19:33;;;;;;;;;;;1.10;88.20;;;;;;5014042;28;19921;-70
2021/04/23 02:21:58;;;;;;;;;;;1.10;88.50;;;;;;5013827;28;20218;-70
2021/04/23 02:24:24;;;;;;;;;;;1.20;88.40;;;;;;4999312;28;19913;-71
2021/04/23 02:26:49;;;;;;;;;;;1.30;88.30;;;;;;5019740;28;20234;-70
2021/04/23 02:29:15;;;;;;;;;;;1.40;87.70;;;;;;5020321;28;20241;-70
2021/04/23 02:31:42;;;;;;;;;;;1.40;87.50;;;;;;5017777;28;20352;-70
2021/04/23 02:34:10;;;;;;;;;;;1.40;87.70;;;;;;5016434;28;19914;-70
2021/04/23 02:36:36;;;;;;;;;;;1.30;88.40;;;;;;5019660;28;19921;-70
2021/04/23 02:39:03;;;;;;;;;;;1.30;88.80;;;;;;5022143;28;19932;-71
2021/04/23 02:41:28;;;;;;;;;;;1.20;89.60;;;;;;5019017;28;20341;-70
2021/04/23 02:43:55;;;;;;;;;;;1.00;90.00;;;;;;5014732;28;20007;-71
2021/04/23 02:46:21;;;;;;;;;;;1.00;89.90;;;;;;5025647;28;19921;-71
2021/04/23 02:48:46;;;;;;;;;;;1.10;90.00;;;;;;5017950;28;19999;-71
2021/04/23 02:51:17;;;;;;;;;;;1.00;89.90;;;;;;5021471;28;20329;-72
2021/04/23 02:53:43;;;;;;;;;;;0.90;90.20;;;;;;5016960;28;19924;-71
2021/04/23 02:56:09;;;;;;;;;;;0.80;90.70;;;;;;5007281;28;19949;-71
2021/04/23 02:58:35;;;;;;;;;;;0.70;91.20;;;;;;4986154;28;19922;-70
2021/04/23 03:01:03;;;;;;;;;;;0.60;91.30;;;;;;5005224;28;20408;-71
2021/04/23 03:03:29;;;;;;;;;;;0.50;91.30;;;;;;5009769;28;19921;-71
2021/04/23 03:05:55;;;;;;;;;;;0.50;91.50;;;;;;5006748;28;19948;-71
2021/04/23 03:08:21;;;;;;;;;;;0.40;91.70;;;;;;5003476;28;19918;-72
2021/04/23 03:10:52;;;;;;;;;;;0.30;92.10;;;;;;5007201;28;19936;-71
2021/04/23 03:13:19;;;;;;;;;;;0.20;92.00;;;;;;5006081;28;20333;-71
2021/04/23 03:15:46;;;;;;;;;;;0.30;91.90;;;;;;5015901;28;19920;-71
2021/04/23 03:18:16;;;;;;;;;;;0.30;90.70;;;;;;5007979;28;19922;-70
2021/04/23 03:20:46;;;;;;;;;;;0.40;89.80;;;;;;5009843;28;19968;-71
2021/04/23 03:23:11;;;;;;;;;;;0.50;89.60;;;;;;4986280;28;20326;-71
2021/04/23 03:25:37;;;;;;;;;;;0.40;89.80;;;;;;5006313;28;19933;-71
2021/04/23 03:28:03;;;;;;;;;;;0.30;90.60;;;;;;5006686;28;19928;-70
2021/04/23 03:30:33;;;;;;;;;;;0.20;91.20;;;;;;5005496;28;20230;-70
2021/04/23 03:32:59;;;;;;;;;;;0.10;92.00;;;;;;5008130;28;19963;-70
2021/04/23 03:35:25;;;;;;;;;;;-0.10;92.90;;;;;;5009688;28;20062;-69
2021/04/23 03:37:51;;;;;;;;;;;-0.10;93.50;;;;;;5005168;28;20016;-69
2021/04/23 03:40:18;;;;;;;;;;;-0.10;93.70;;;;;;5005938;28;20012;-70
2021/04/23 03:42:44;;;;;;;;;;;-0.20;94.00;;;;;;5003098;28;20024;-70
2021/04/23 03:45:10;;;;;;;;;;;-0.20;94.30;;;;;;5009638;28;20354;-72
2021/04/23 03:47:36;;;;;;;;;;;-0.10;94.30;;;;;;5004700;28;20270;-71
2021/04/23 03:50:03;;;;;;;;;;;-0.20;94.20;;;;;;5004625;28;19922;-70
2021/04/23 03:52:28;;;;;;;;;;;-0.20;94.30;;;;;;5007934;28;19918;-71
2021/04/23 03:54:57;;;;;;;;;;;-0.20;94.20;;;;;;5019364;28;20261;-71
2021/04/23 03:57:22;;;;;;;;;;;-0.20;94.10;;;;;;5024065;28;20328;-70
2021/04/23 03:59:48;;;;;;;;;;;-0.30;94.30;;;;;;5020777;28;20005;-71
2021/04/23 04:02:13;;;;;;;;;;;-0.20;94.60;;;;;;5017449;28;20015;-70
2021/04/23 04:04:39;;;;;;;;;;;-0.10;94.60;;;;;;5018025;28;19957;-70
2021/04/23 04:07:04;;;;;;;;;;;0.00;94.50;;;;;;5017272;28;19949;-70
2021/04/23 04:09:33;;;;;;;;;;;0.10;94.10;;;;;;5019933;28;19979;-71
2021/04/23 04:11:58;;;;;;;;;;;0.20;93.90;;;;;;5019521;28;19924;-71
2021/04/23 04:14:24;;;;;;;;;;;0.10;93.80;;;;;;5015706;28;19913;-70
2021/04/23 04:16:49;;;;;;;;;;;0.00;94.00;;;;;;5017170;28;19920;-70
2021/04/23 04:19:15;;;;;;;;;;;-0.20;94.30;;;;;;5003445;28;19949;-71
2021/04/23 04:21:40;;;;;;;;;;;-0.20;94.50;;;;;;5017331;28;19940;-70
2021/04/23 04:24:06;;;;;;;;;;;-0.10;94.60;;;;;;5016458;28;20023;-70
2021/04/23 04:26:32;;;;;;;;;;;-0.10;94.60;;;;;;5017011;28;19913;-70
2021/04/23 04:28:57;;;;;;;;;;;-0.20;94.70;;;;;;5018801;28;20440;-71
2021/04/23 04:31:23;;;;;;;;;;;-0.20;94.90;;;;;;5020978;28;20409;-70
2021/04/23 04:33:50;;;;;;;;;;;-0.10;95.10;;;;;;5007443;28;20174;-69
2021/04/23 04:36:15;;;;;;;;;;;0.10;94.70;;;;;;5020205;28;19921;-70
2021/04/23 04:38:41;;;;;;;;;;;0.20;94.20;;;;;;5016745;28;19921;-70
2021/04/23 04:41:07;;;;;;;;;;;0.20;93.80;;;;;;5005955;28;20092;-71
2021/04/23 04:43:32;;;;;;;;;;;0.20;93.90;;;;;;5020075;28;19932;-71
2021/04/23 04:45:58;;;;;;;;;;;0.30;93.60;;;;;;5019431;28;20004;-70
2021/04/23 04:48:24;;;;;;;;;;;0.30;93.30;;;;;;5005134;28;19909;-71
2021/04/23 04:50:54;;;;;;;;;;;0.30;93.30;;;;;;5017984;28;20214;-71
2021/04/23 04:53:20;;;;;;;;;;;0.20;93.50;;;;;;5016728;28;20055;-69
2021/04/23 04:55:47;;;;;;;;;;;0.20;94.00;;;;;;5033247;28;19917;-69
2021/04/23 04:58:13;;;;;;;;;;;0.30;94.10;;;;;;5012204;28;19917;-70
2021/04/23 05:00:40;;;;;;;;;;;0.50;93.60;;;;;;5031936;28;19921;-70
2021/04/23 05:03:06;;;;;;;;;;;0.50;93.30;;;;;;5027229;28;19929;-71
2021/04/23 05:05:32;;;;;;;;;;;0.50;93.10;;;;;;5030240;28;19913;-69
2021/04/23 05:07:58;;;;;;;;;;;0.50;93.30;;;;;;5024877;28;20339;-70
2021/04/23 05:10:24;;;;;;;;;;;0.50;93.70;;;;;;5033215;28;20269;-71
2021/04/23 05:12:50;;;;;;;;;;;0.50;93.80;;;;;;5029573;28;19917;-71
2021/04/23 05:15:17;;;;;;;;;;;0.50;93.70;;;;;;5034870;28;19960;-71
2021/04/23 05:17:43;;;;;;;;;;;0.40;94.10;;;;;;5017602;28;21734;-73
2021/04/23 05:20:10;;;;;;;;;;;0.40;94.30;;;;;;5034545;28;20293;-71
2021/04/23 05:22:36;;;;;;;;;;;0.40;94.30;;;;;;5033851;28;19917;-71
2021/04/23 05:25:05;;;;;;;;;;;0.30;94.50;;;;;;5017189;28;20008;-70
2021/04/23 05:27:31;;;;;;;;;;;0.40;94.70;;;;;;5035109;28;19919;-71
2021/04/23 05:29:57;;;;;;;;;;;0.40;94.90;;;;;;5034825;28;20321;-70
2021/04/23 05:32:23;;;;;;;;;;;0.50;95.00;;;;;;5035540;28;20004;-68
2021/04/23 05:34:49;;;;;;;;;;;0.60;95.00;;;;;;5018461;28;19970;-70
2021/04/23 05:37:14;;;;;;;;;;;0.80;95.00;;;;;;5003064;28;19921;-71
2021/04/23 05:39:44;;;;;;;;;;;1.10;94.80;;;;;;5019055;28;19921;-71
2021/04/23 05:42:13;;;;;;;;;;;1.30;93.90;;;;;;5039144;28;19920;-71
2021/04/23 05:44:39;;;;;;;;;;;1.60;93.10;;;;;;5038258;28;20329;-71
2021/04/23 05:47:05;;;;;;;;;;;1.80;92.50;;;;;;5039233;28;19948;-72
2021/04/23 05:49:31;;;;;;;;;;;2.00;91.50;;;;;;5036860;28;20008;-72
2021/04/23 05:51:56;;;;;;;;;;;2.20;91.30;;;;;;5036968;28;19924;-71
2021/04/23 05:54:22;;;;;;;;;;;2.40;91.30;;;;;;5037108;28;20222;-72
2021/04/23 05:56:47;;;;;;;;;;;2.50;90.50;;;;;;5036690;28;19914;-72
2021/04/23 05:59:13;;;;;;;;;;;2.60;89.70;;;;;;5035981;28;19913;-72
2021/04/23 06:01:38;;;;;;;;;;;2.70;88.90;;;;;;5038093;28;19991;-71
2021/04/23 06:04:04;;;;;;;;;;;2.90;87.60;;;;;;5038546;28;20211;-71
2021/04/23 06:06:30;;;;;;;;;;;3.00;86.40;;;;;;5038798;28;19909;-72
2021/04/23 06:08:55;;;;;;;;;;;3.30;85.40;;;;;;5037086;28;20195;-71
2021/04/23 06:11:21;;;;;;;;;;;3.40;84.30;;;;;;5034063;28;19917;-70
2021/04/23 06:13:50;;;;;;;;;;;3.60;83.30;;;;;;5038201;28;19915;-71
2021/04/23 06:16:15;;;;;;;;;;;3.70;82.40;;;;;;5038607;28;19954;-71
2021/04/23 06:18:41;;;;;;;;;;;3.80;81.70;;;;;;5037414;28;19925;-72
2021/04/23 06:21:07;;;;;;;;;;;4.00;81.30;;;;;;5020774;28;19971;-72
2021/04/23 06:23:34;;;;;;;;;;;4.20;80.20;;;;;;5019873;28;19917;-70
2021/04/23 06:26:00;;;;;;;;;;;4.50;79.60;;;;;;5037207;28;19913;-70
2021/04/23 06:28:27;;;;;;;;;;;4.60;78.40;;;;;;5038350;28;20367;-70
2021/04/23 06:30:53;;;;;;;;;;;4.80;77.50;;;;;;5037663;28;20421;-69
2021/04/23 06:33:22;;;;;;;;;;;5.00;76.90;;;;;;5038086;28;19917;-69
2021/04/23 06:35:48;;;;;;;;;;;5.10;75.80;;;;;;5037606;28;19913;-71
2021/04/23 06:38:13;;;;;;;;;;;5.20;75.30;;;;;;5019597;28;19916;-71
2021/04/23 06:40:39;;;;;;;;;;;5.20;75.10;;;;;;5037841;28;19913;-70
2021/04/23 06:43:05;;;;;;;;;;;5.30;75.30;;;;;;5035207;28;19917;-72
2021/04/23 06:45:30;;;;;;;;;;;5.30;75.50;;;;;;5037731;28;19913;-71
2021/04/23 06:47:56;;;;;;;;;;;5.40;75.60;;;;;;5037562;28;19920;-71
2021/04/23 06:50:22;;;;;;;;;;;5.60;75.00;;;;;;5036855;28;19988;-71
2021/04/23 06:52:48;;;;;;;;;;;5.70;74.20;;;;;;5036887;28;19937;-71
2021/04/23 06:55:14;;;;;;;;;;;5.80;74.20;;;;;;5031230;28;19976;-71
2021/04/23 06:57:40;;;;;;;;;;;6.00;74.80;;;;;;5033633;28;19913;-70
2021/04/23 07:00:10;;;;;;;;;;;6.10;73.90;;;;;;5032960;28;20277;-73
2021/04/23 07:02:36;;;;;;;;;;;6.20;73.80;;;;;;5000423;28;19917;-71
2021/04/23 07:05:02;;;;;;;;;;;6.40;73.90;;;;;;5032690;28;19919;-74
2021/04/23 07:07:27;;;;;;;;;;;6.40;73.30;;;;;;5036661;28;19917;-71
2021/04/23 07:09:53;;;;;;;;;;;6.50;74.10;;;;;;5023854;28;19975;-72
2021/04/23 07:12:18;;;;;;;;;;;6.60;74.20;;;;;;5027961;28;20361;-70
2021/04/23 07:14:44;;;;;;;;;;;6.60;73.70;;;;;;5026493;28;19914;-71
2021/04/23 07:17:12;;;;;;;;;;;6.70;73.80;;;;;;5018816;28;19916;-72
2021/04/23 07:19:38;;;;;;;;;;;6.90;74.30;;;;;;5026434;28;20099;-71
2021/04/23 07:22:05;;;;;;;;;;;7.00;73.80;;;;;;5036098;28;19913;-72
2021/04/23 07:24:31;;;;;;;;;;;7.20;73.40;;;;;;5018490;28;19913;-72
2021/04/23 07:26:57;;;;;;;;;;;7.20;73.40;;;;;;5017254;28;19909;-72
2021/04/23 07:29:22;;;;;;;;;;;7.20;73.30;;;;;;5018442;28;19948;-72
2021/04/23 07:31:48;;;;;;;;;;;7.30;73.80;;;;;;5023585;28;19921;-72
2021/04/23 07:34:13;;;;;;;;;;;7.50;74.10;;;;;;5037215;28;19917;-72
2021/04/23 07:36:39;;;;;;;;;;;7.80;72.60;;;;;;5032901;28;20264;-71
2021/04/23 07:39:04;;;;;;;;;;;7.90;72.90;;;;;;5016777;28;19917;-71
2021/04/23 07:41:30;;;;;;;;;;;8.20;71.80;;;;;;5028650;28;19913;-71
2021/04/23 07:43:55;;;;;;;;;;;8.40;71.60;;;;;;5016767;28;19920;-72
2021/04/23 07:46:21;;;;;;;;;;;8.60;71.50;;;;;;5007737;28;19916;-72
2021/04/23 07:48:46;;;;;;;;;;;9.20;70.60;;;;;;5022779;28;19918;-72
2021/04/23 07:51:12;;;;;;;;;;;10.00;68.40;;;;;;5017098;28;19992;-72
2021/04/23 07:53:39;;;;;;;;;;;11.20;66.80;;;;;;5015767;28;19965;-72
2021/04/23 07:56:04;;;;;;;;;;;12.20;63.90;;;;;;4998754;28;19961;-72
2021/04/23 07:58:30;;;;;;;;;;;13.10;62.40;;;;;;5016972;28;19967;-72
2021/04/23 08:00:55;;;;;;;;;;;13.30;61.30;;;;;;5016774;28;20012;-72
2021/04/23 08:03:21;;;;;;;;;;;13.90;59.60;;;;;;5016842;28;19925;-72
2021/04/23 08:05:47;;;;;;;;;;;13.90;57.90;;;;;;5016192;28;19917;-72
2021/04/23 08:08:12;;;;;;;;;;;13.90;58.60;;;;;;5015660;28;19910;-72
2021/04/23 08:10:38;;;;;;;;;;;14.00;58.20;;;;;;5016030;28;19917;-72
2021/04/23 08:13:04;;;;;;;;;;;14.00;58.30;;;;;;4998879;28;19957;-71
2021/04/23 08:15:29;;;;;;;;;;;14.50;57.80;;;;;;5016745;28;19916;-72
2021/04/23 08:17:56;;;;;;;;;;;14.70;56.30;;;;;;5014729;28;19913;-71
2021/04/23 08:20:21;;;;;;;;;;;14.70;57.00;;;;;;5016417;28;19921;-72
2021/04/23 08:22:47;;;;;;;;;;;14.80;56.10;;;;;;4997490;28;19917;-72
2021/04/23 08:25:14;;;;;;;;;;;15.00;56.50;;;;;;5015953;28;19913;-71
2021/04/23 08:27:40;;;;;;;;;;;15.20;54.90;;;;;;5015824;28;19957;-71
2021/04/23 08:30:07;;;;;;;;;;;15.20;54.90;;;;;;5016133;28;20328;-71
2021/04/23 08:32:32;;;;;;;;;;;15.20;54.30;;;;;;4997945;28;19914;-71
2021/04/23 08:34:58;;;;;;;;;;;14.50;53.70;;;;;;5016327;28;20241;-72
2021/04/23 08:37:24;;;;;;;;;;;14.50;55.70;;;;;;5015314;28;19909;-72
2021/04/23 08:39:49;;;;;;;;;;;14.60;55.60;;;;;;5015822;28;19921;-72
2021/04/23 08:42:15;;;;;;;;;;;14.90;54.20;;;;;;5015397;28;20253;-72
2021/04/23 08:44:41;;;;;;;;;;;15.00;54.50;;;;;;5015400;28;19913;-72
2021/04/23 08:47:07;;;;;;;;;;;15.30;55.10;;;;;;5015488;28;19929;-72
2021/04/23 08:49:33;;;;;;;;;;;15.70;54.10;;;;;;5015506;28;20017;-72
2021/04/23 08:52:00;;;;;;;;;;;16.20;52.20;;;;;;5014720;28;20089;-72
2021/04/23 08:54:25;;;;;;;;;;;16.40;52.00;;;;;;5004844;28;19922;-72
2021/04/23 08:56:51;;;;;;;;;;;16.90;51.20;;;;;;5015793;28;19909;-72
2021/04/23 08:59:17;;;;;;;;;;;16.90;50.90;;;;;;5015859;28;19921;-72
2021/04/23 09:01:42;;;;;;;;;;;16.70;51.30;;;;;;5035797;28;19920;-72
2021/04/23 09:04:08;;;;;;;;;;;16.60;51.20;;;;;;5029301;28;19921;-72
2021/04/23 09:06:33;;;;;;;;;;;17.10;51.30;;;;;;5015962;28;20004;-71
2021/04/23 09:09:01;;;;;;;;;;;17.30;50.50;;;;;;5008340;28;19909;-72
2021/04/23 09:11:38;;;;;;;;;;;17.10;50.50;;;;;;5003205;28;19913;-73
2021/04/23 09:14:05;;;;;;;;;;;17.20;50.50;;;;;;5019420;28;19914;-71
2021/04/23 09:16:46;;;;;;;;;;;17.40;49.20;;;;;;5020859;28;19913;-71
2021/04/23 09:19:23;;;;;;;;;;;17.30;50.50;;;;;;5000993;28;19940;-70
2021/04/23 09:21:53;;;;;;;;;;;17.00;49.30;;;;;;5006536;28;19914;-70
2021/04/23 09:24:23;;;;;;;;;;;16.70;51.80;;;;;;5020358;28;19949;-70
2021/04/23 09:26:50;;;;;;;;;;;17.10;50.50;;;;;;5002087;28;19917;-69
2021/04/23 09:29:35;;;;;;;;;;;17.60;50.40;;;;;;5019474;28;19959;-69
2021/04/23 09:32:13;;;;;;;;;;;17.90;49.60;;;;;;5019543;28;19910;-70
2021/04/23 09:34:58;;;;;;;;;;;17.90;49.00;;;;;;5019264;28;20412;-71
2021/04/23 09:37:25;;;;;;;;;;;18.70;49.00;;;;;;5032432;28;19920;-72
2021/04/23 09:39:52;;;;;;;;;;;19.20;47.80;;;;;;5039251;28;20393;-72
2021/04/23 09:42:20;;;;;;;;;;;19.10;46.50;;;;;;5032956;28;19980;-72
2021/04/23 09:44:47;;;;;;;;;;;19.00;47.60;;;;;;5019382;28;19955;-72
2021/04/23 09:47:16;;;;;;;;;;;18.20;47.90;;;;;;5004723;28;19960;-71
2021/04/23 09:49:43;;;;;;;;;;;17.90;50.40;;;;;;5032996;28;19957;-71
2021/04/23 09:52:10;;;;;;;;;;;17.60;50.20;;;;;;5011593;28;19918;-71
2021/04/23 09:54:36;;;;;;;;;;;17.70;48.90;;;;;;5033070;28;19921;-72
2021/04/23 09:57:11;;;;;;;;;;;17.50;50.50;;;;;;5038492;28;19966;-71
2021/04/23 09:59:45;;;;;;;;;;;17.50;49.40;;;;;;5036453;28;19956;-72
2021/04/23 10:02:13;;;;;;;;;;;16.90;50.60;;;;;;5024461;28;19917;-71
2021/04/23 10:04:39;;;;;;;;;;;17.20;49.80;;;;;;5038358;28;19952;-72
2021/04/23 10:07:06;;;;;;;;;;;17.90;49.80;;;;;;5019563;28;19917;-71
2021/04/23 10:09:41;;;;;;;;;;;17.90;49.20;;;;;;5038880;28;20004;-71
2021/04/23 10:12:07;;;;;;;;;;;18.20;48.70;;;;;;5038416;28;19917;-70
2021/04/23 10:14:32;;;;;;;;;;;17.80;49.40;;;;;;5038291;28;19909;-70
2021/04/23 10:16:59;;;;;;;;;;;18.20;49.10;;;;;;5038414;28;19948;-69
2021/04/23 10:19:25;;;;;;;;;;;18.40;48.00;;;;;;5037499;28;20008;-70
2021/04/23 10:21:51;;;;;;;;;;;18.90;46.90;;;;;;5035731;28;19917;-69
2021/04/23 10:24:17;;;;;;;;;;;18.80;48.30;;;;;;5037619;28;20268;-69
2021/04/23 10:26:44;;;;;;;;;;;18.30;48.20;;;;;;5037864;28;19913;-70
2021/04/23 10:29:11;;;;;;;;;;;18.20;48.60;;;;;;5037251;28;19914;-70
2021/04/23 10:31:37;;;;;;;;;;;18.00;48.50;;;;;;5038344;28;19914;-70
2021/04/23 10:34:02;;;;;;;;;;;18.10;48.90;;;;;;5037128;28;19967;-69
2021/04/23 10:36:29;;;;;;;;;;;18.30;48.10;;;;;;5037318;28;19925;-69
2021/04/23 10:38:55;;;;;;;;;;;18.30;48.60;;;;;;5035784;28;19964;-69
2021/04/23 10:41:21;;;;;;;;;;;18.40;48.80;;;;;;5038000;28;20253;-70
2021/04/23 10:43:51;;;;;;;;;;;18.40;49.40;;;;;;5037863;28;20221;-69
2021/04/23 10:46:17;;;;;;;;;;;18.30;49.10;;;;;;5019702;28;19913;-70
2021/04/23 10:48:46;;;;;;;;;;;17.80;49.30;;;;;;5010598;28;19920;-70
2021/04/23 10:51:18;;;;;;;;;;;18.20;49.30;;;;;;5057885;28;19995;-71
2021/04/23 10:53:45;;;;;;;;;;;17.80;49.60;;;;;;5046966;28;19928;-69
2021/04/23 10:56:18;;;;;;;;;;;17.90;49.00;;;;;;5038082;28;20344;-70
2021/04/23 10:58:46;;;;;;;;;;;17.80;48.80;;;;;;5015757;28;19913;-70
2021/04/23 11:01:15;;;;;;;;;;;18.00;48.60;;;;;;5031296;28;19913;-70
2021/04/23 11:03:42;;;;;;;;;;;17.80;48.60;;;;;;5033726;28;19925;-70
2021/04/23 11:06:26;;;;;;;;;;;17.70;49.80;;;;;;5036692;28;20006;-70
2021/04/23 11:09:00;;;;;;;;;;;17.80;48.80;;;;;;5036359;28;20316;-69
2021/04/23 11:11:33;;;;;;;;;;;17.70;50.30;;;;;;5037225;28;19935;-70
2021/04/23 11:14:17;;;;;;;;;;;18.00;50.00;;;;;;5035968;28;20322;-70
2021/04/23 11:16:43;;;;;;;;;;;17.60;48.60;;;;;;5036695;28;19956;-70
2021/04/23 11:19:20;;;;;;;;;;;17.80;49.10;;;;;;5035864;28;19959;-70
2021/04/23 11:21:53;;;;;;;;;;;18.20;49.10;;;;;;5035183;28;19913;-69
2021/04/23 11:24:19;;;;;;;;;;;18.60;48.40;;;;;;5016196;28;20321;-69
2021/04/23 11:27:05;;;;;;;;;;;18.40;48.70;;;;;;5032312;28;20314;-69
2021/04/23 11:29:57;;;;;;;;;;;18.00;49.00;;;;;;5030526;28;19916;-69
2021/04/23 11:32:24;;;;;;;;;;;17.90;49.10;;;;;;5027641;28;19913;-70
2021/04/23 11:34:50;;;;;;;;;;;17.50;49.40;;;;;;5012119;28;19912;-69
2021/04/23 11:37:17;;;;;;;;;;;17.50;49.50;;;;;;5034928;28;19916;-70
2021/04/23 11:39:44;;;;;;;;;;;17.30;49.40;;;;;;5033817;28;19966;-70
2021/04/23 11:42:12;;;;;;;;;;;17.40;50.90;;;;;;5031594;28;19921;-70
2021/04/23 11:44:42;;;;;;;;;;;17.20;49.60;;;;;;5028649;28;19968;-70
2021/04/23 11:47:08;;;;;;;;;;;17.30;48.60;;;;;;5034318;28;19913;-70
2021/04/23 11:49:33;;;;;;;;;;;17.40;49.50;;;;;;5036904;28;19909;-70
2021/04/23 11:52:02;;;;;;;;;;;17.40;48.80;;;;;;5034548;28;20329;-70
2021/04/23 11:54:32;;;;;;;;;;;17.40;48.60;;;;;;5036301;28;19956;-70
2021/04/23 11:57:02;;;;;;;;;;;17.60;48.30;;;;;;5036918;28;19917;-70
2021/04/23 11:59:28;;;;;;;;;;;17.60;49.20;;;;;;5036195;28;19917;-70
2021/04/23 12:01:53;;;;;;;;;;;17.70;49.70;;;;;;5035933;28;19913;-70
2021/04/23 12:04:38;;;;;;;;;;;17.70;50.20;;;;;;5018625;28;19963;-70
2021/04/23 12:07:03;;;;;;;;;;;17.90;48.30;;;;;;5035323;28;19909;-69
2021/04/23 12:09:29;;;;;;;;;;;17.60;47.60;;;;;;5035905;28;20390;-69
2021/04/23 12:12:04;;;;;;;;;;;17.50;48.80;;;;;;5035982;28;19913;-68
2021/04/23 12:14:46;;;;;;;;;;;17.70;50.60;;;;;;5036134;28;20324;-70
2021/04/23 12:17:12;;;;;;;;;;;17.70;49.00;;;;;;5036532;28;19910;-70
2021/04/23 12:19:38;;;;;;;;;;;17.60;48.00;;;;;;5009746;28;20364;-69
2021/04/23 12:22:04;;;;;;;;;;;17.70;48.50;;;;;;5026630;28;19913;-70
2021/04/23 12:24:30;;;;;;;;;;;17.70;48.30;;;;;;5031672;28;19917;-70
2021/04/23 12:26:55;;;;;;;;;;;17.50;48.60;;;;;;5035794;28;19967;-70
2021/04/23 12:29:22;;;;;;;;;;;17.40;48.80;;;;;;5036145;28;19910;-70
2021/04/23 12:31:47;;;;;;;;;;;17.30;48.30;;;;;;5018075;28;20006;-70
2021/04/23 12:34:15;;;;;;;;;;;17.50;47.70;;;;;;5018539;28;20012;-70
2021/04/23 12:36:45;;;;;;;;;;;17.70;46.60;;;;;;5034629;28;20373;-69
2021/04/23 12:39:14;;;;;;;;;;;17.40;46.00;;;;;;5035294;28;19957;-69
2021/04/23 12:41:48;;;;;;;;;;;16.80;48.40;;;;;;5018572;28;19915;-70
2021/04/23 12:44:16;;;;;;;;;;;16.90;49.10;;;;;;5036056;28;19917;-70
2021/04/23 12:46:52;;;;;;;;;;;17.60;48.20;;;;;;5035918;28;19964;-70
2021/04/23 12:49:26;;;;;;;;;;;17.70;45.70;;;;;;5035884;28;20204;-71
2021/04/23 12:51:55;;;;;;;;;;;17.60;47.20;;;;;;5034287;28;19913;-72
2021/04/23 12:54:28;;;;;;;;;;;17.70;45.80;;;;;;5035512;28;19921;-71
2021/04/23 12:56:58;;;;;;;;;;;18.00;46.60;;;;;;5020496;28;19913;-71
2021/04/23 12:59:39;;;;;;;;;;;18.40;46.00;;;;;;5015968;28;19913;-71
2021/04/23 13:02:06;;;;;;;;;;;18.50;44.90;;;;;;5015990;28;19933;-71
2021/04/23 13:04:31;;;;;;;;;;;18.10;45.20;;;;;;5024407;28;19984;-71
2021/04/23 13:07:07;;;;;;;;;;;18.20;44.20;;;;;;5032502;28;19996;-70
2021/04/23 13:09:34;;;;;;;;;;;18.30;43.60;;;;;;5015219;28;20387;-71
2021/04/23 13:12:15;;;;;;;;;;;17.80;44.10;;;;;;5025313;28;19913;-71
2021/04/23 13:14:41;;;;;;;;;;;17.80;44.50;;;;;;5010338;28;19957;-71
2021/04/23 13:17:06;;;;;;;;;;;17.90;44.50;;;;;;5015860;28;19937;-71
2021/04/23 13:19:52;;;;;;;;;;;18.30;44.10;;;;;;5025743;28;19936;-72
2021/04/23 13:22:21;;;;;;;;;;;18.70;44.00;;;;;;5008464;28;19914;-71
2021/04/23 13:24:46;;;;;;;;;;;18.70;42.60;;;;;;5015864;28;19914;-72
2021/04/23 13:27:32;;;;;;;;;;;18.50;43.20;;;;;;5015949;28;20025;-70
2021/04/23 13:29:58;;;;;;;;;;;18.70;42.90;;;;;;5014882;28;19925;-71
2021/04/23 13:32:24;;;;;;;;;;;19.00;41.70;;;;;;5015488;28;19914;-71
2021/04/23 13:34:56;;;;;;;;;;;19.20;41.50;;;;;;5015244;28;19914;-71
2021/04/23 13:37:29;;;;;;;;;;;19.30;40.40;;;;;;5014761;28;19917;-71
2021/04/23 13:40:03;;;;;;;;;;;19.30;41.90;;;;;;5015537;28;19913;-71
2021/04/23 13:42:28;;;;;;;;;;;19.60;41.70;;;;;;5015022;28;19924;-71
2021/04/23 13:44:54;;;;;;;;;;;19.90;40.10;;;;;;5015659;28;19910;-71
2021/04/23 13:47:19;;;;;;;;;;;19.50;40.40;;;;;;5015712;28;20218;-71
2021/04/23 13:49:45;;;;;;;;;;;19.50;42.00;;;;;;5018728;28;20340;-71
2021/04/23 13:52:14;;;;;;;;;;;19.60;39.60;;;;;;5033846;28;20043;-71
2021/04/23 13:54:40;;;;;;;;;;;19.70;40.70;;;;;;5039015;28;20221;-70
2021/04/23 13:57:15;;;;;;;;;;;19.50;40.10;;;;;;5038280;28;19935;-71
2021/04/23 13:59:40;;;;;;;;;;;19.70;40.30;;;;;;5033379;28;20194;-71
2021/04/23 14:02:07;;;;;;;;;;;19.80;40.10;;;;;;5037047;28;19924;-71
2021/04/23 14:04:35;;;;;;;;;;;19.60;39.20;;;;;;5028951;28;19924;-70
2021/04/23 14:07:02;;;;;;;;;;;19.70;43.60;;;;;;5024716;28;19932;-71
2021/04/23 14:09:28;;;;;;;;;;;19.70;40.10;;;;;;5019085;28;20317;-71
2021/04/23 14:11:58;;;;;;;;;;;19.70;40.10;;;;;;5023481;28;20295;-71
2021/04/23 14:14:29;;;;;;;;;;;19.50;39.60;;;;;;5018844;28;20284;-71
2021/04/23 14:16:58;;;;;;;;;;;19.90;39.50;;;;;;5029611;28;19913;-70
2021/04/23 14:19:23;;;;;;;;;;;20.20;39.50;;;;;;5037913;28;19936;-70
2021/04/23 14:21:49;;;;;;;;;;;20.10;38.80;;;;;;5026608;28;20221;-70
2021/04/23 14:24:15;;;;;;;;;;;20.30;38.60;;;;;;5029700;28;19971;-71
2021/04/23 14:26:41;;;;;;;;;;;20.60;38.90;;;;;;5018699;28;20306;-71